Amunt
Inicio > meteoXarxa
Fes-te'n soci

METEOXARXA

la Pobla Tornesa
Ubicació Desert
Comarca la Plana Alta
Altitud (msnm) 729
Posició geogràfica 40° 5' 16.33" N, 00° 2' 19.58" E
Model Davis Vantage Pro
Presa de dades
Font de les dades Universitat Jaume I de Castelló
Estadístiques. Resum
Data Temperatura (ºC) Humitat (%) Pressió (hPa) Vent (km/h) Precipit. (mm)
Mínima Mitjana Màxima Mínima Mitjana Màxima Mínima Mitjana Màxima Predom. Mitjana Ràfega màxima Total Dies de pluja
Mínima Mitjana Màxima Mínima Mitjana Màxima
Últimes dades diàries
27-03-2017 6,7     8,9     12,2 SSE 10,9 25,7 1,5  
26-03-2017 7,1     9,3     12,3 NNE 12,4 37,0 0,0  
25-03-2017 5,9     8,4     12,3 SSE 17,1 54,7 0,0  
24-03-2017 4,1     6,0     8,4 NE 14,2 38,6 0,0  
23-03-2017 5,4     7,6     9,8 SE 22,0 51,5 0,0  
22-03-2017 9,7     11,4     14,2 S 13,5 67,6 0,0  
21-03-2017 10,1     12,9     16,1 ENE 6,8 20,9 0,0  
20-03-2017 12,7     14,9     16,9 SSE 3,5 17,7 0,0  
19-03-2017 13,7     15,2     17,3 SE 10,3 29,0 0,0  
18-03-2017 11,8     14,7     18,1 NW 7,1 17,7 0,0  
17-03-2017 9,8     11,3     13,3 S 8,2 29,0 0,0  
16-03-2017 7,9     11,2     14,2 S 10,0 29,0 0,0  
15-03-2017 8,8     10,7     13,4 NNE 19,5 49,9 0,0  
14-03-2017 7,0     10,1     14,7 NNE 25,3 64,4 0,0  
13-03-2017 4,2     7,0     9,5 NNE 36,5 74,0 13,2  
12-03-2017 4,6     11,6     18,9 NNW 27,8 80,5 5,1  
11-03-2017 15,2     18,3     21,6 NW 5,8 19,3 0,0  
10-03-2017 15,1     19,2     23,3 NNW 17,5 49,9 0,0  
09-03-2017 17,0     20,7     22,6 S 14,0 48,3 0,0  
08-03-2017 11,8     13,8     17,9 SSW 22,0 82,1 0,0  
07-03-2017 11,4     14,7     18,7 NW 20,1 83,7 0,0  
06-03-2017 12,3     15,0     18,9 NW 19,6 72,4 0,0  
05-03-2017 6,8     11,0     14,5 NW 11,9 37,0 0,0  
04-03-2017 4,2     6,8     9,9 W 25,9 75,6 0,3  
03-03-2017 3,9     8,4     11,2 SSE 16,6 72,4 7,9  
02-03-2017 10,4     11,8     13,2 NNW 13,7 38,6 0,0  
28-02-2017 8,6     11,4     13,8 NW 16,3 49,9 0,0  
27-02-2017 7,7     11,0     13,7 SSW 11,4 43,5 0,0  
26-02-2017 6,8     8,7     10,6 S 11,1 30,6 0,0  
25-02-2017 5,8     7,6     9,7 NW 12,2 45,1 0,0  
24-02-2017 6,4     8,8     11,6 N 22,7 64,4 4,8  
23-02-2017 9,5     12,6     16,7 S 9,3 33,8 0,0  
Dades del mes en curs (actualitzades fins l'últim dia disponible)
03/2017 3,9 9,1 17,0 12,0 8,4 15,1 23,3   15,9 83,7 28,0  
Últimes dades mensuals
02/2017 3,7 7,1 11,7 9,4 7,3 12,0 16,7 17,9 135,2 17,5 8
01/2017 -3,2 4,9 10,9 7,1 3,1 9,6 16,4 22,9 104,6 191,7 10
12/2016 3,5 7,7 11,1 9,5 6,2 11,8 18,1 15,8 86,9 113,3 12
11/2016 4,0 8,8 14,3 11,2 8,3 14,0 19,9 19,1 90,1 89,4 13
10/2016 11,6 14,5 17,2 16,1 13,3 18,4 22,0 10,3 57,9 24,8 17
09/2016 12,8 17,4 27,3 19,8 18,4 22,6 33,2 14,0 90,1 56,5 9
08/2016 14,9 18,7 21,4 21,4 20,7 24,0 27,6 12,0 66,0 9,3 14
07/2016 13,6 19,0 27,4 21,6 19,3 24,3 29,9 13,7 56,3 1,2 4
06/2016 11,9 15,9 20,6 18,2 18,4 21,2 26,2 15,4 88,5 1,3 1
05/2016 5,1 11,2 15,8 13,8 12,2 16,7 22,5 17,0 91,7 27,0 11
04/2016 5,1 9,0 13,9 11,3 9,7 14,3 21,6 19,7 99,8 39,9 9
03/2016 3,1 6,6 13,2 9,1 7,1 12,1 18,2 20,5 91,7 24,7 8
02/2016 0,5 6,7 14,2 9,2 5,5 12,0 16,4 21,1 103,0 1,4 4
Dades de l'any en curs (actualitzades fins l'últim dia disponible)
2017 -3,2 6,9 17,0 9,3 3,1 12,1 23,3   19,0 135,2 237,2  
Últimes dades anuals
2015 -2,7 12,3 15,3 14,7 17,3 17,4 33,0 16,4 132,0 459,1 76
2016 0,5 11,9 27,4 14,2 5,5 17,0 33,2 16,4 103,0 391,6 108